createdAt,value
2019-03-19T00:01:05.548Z,14.43
2019-03-19T00:03:37.804Z,13.73
2019-03-19T00:06:16.816Z,9.63
2019-03-19T00:09:25.593Z,11.33
2019-03-19T00:11:54.410Z,20.17
2019-03-19T00:14:23.217Z,14.00
2019-03-19T00:16:51.961Z,12.70
2019-03-19T00:19:22.468Z,13.27
2019-03-19T00:21:50.905Z,11.73
2019-03-19T00:24:19.566Z,17.63
2019-03-19T00:26:48.209Z,16.43
2019-03-19T00:29:17.158Z,21.67
2019-03-19T00:31:45.753Z,13.67
2019-03-19T00:34:14.469Z,19.07
2019-03-19T00:36:43.103Z,14.50
2019-03-19T00:39:11.700Z,17.13
2019-03-19T00:41:40.338Z,16.43
2019-03-19T00:44:09.064Z,25.93
2019-03-19T00:46:41.105Z,17.47
2019-03-19T00:49:09.933Z,15.40
2019-03-19T00:51:38.748Z,16.07
2019-03-19T00:54:07.481Z,18.90
2019-03-19T00:56:36.130Z,17.70
2019-03-19T00:59:04.927Z,12.03
2019-03-19T01:01:33.742Z,15.13
2019-03-19T01:04:05.774Z,17.63
2019-03-19T01:06:34.599Z,19.97
2019-03-19T01:09:03.287Z,14.87
2019-03-19T01:11:34.249Z,19.37
2019-03-19T01:14:09.483Z,14.20
2019-03-19T01:16:49.685Z,12.73
2019-03-19T01:19:22.501Z,14.13
2019-03-19T01:21:51.887Z,11.10
2019-03-19T01:24:20.594Z,20.17
2019-03-19T01:26:52.404Z,16.37
2019-03-19T01:29:24.383Z,24.17
2019-03-19T01:32:02.058Z,21.90
2019-03-19T01:34:33.076Z,14.70
2019-03-19T01:37:03.797Z,10.00
2019-03-19T01:39:35.334Z,12.73
2019-03-19T01:42:14.947Z,19.20
2019-03-19T01:44:46.473Z,22.97
2019-03-19T01:47:22.434Z,19.27
2019-03-19T01:49:57.215Z,11.23
2019-03-19T01:52:35.096Z,10.30
2019-03-19T01:55:12.010Z,11.03
2019-03-19T01:57:42.611Z,15.13
2019-03-19T02:00:17.208Z,11.83
2019-03-19T02:02:52.448Z,16.20
2019-03-19T02:05:27.958Z,20.33
2019-03-19T02:07:58.361Z,20.43
2019-03-19T02:10:32.334Z,16.13
2019-03-19T02:13:02.745Z,22.57
2019-03-19T02:15:37.177Z,12.73
2019-03-19T02:18:14.925Z,20.93
2019-03-19T02:20:48.000Z,21.77
2019-03-19T02:23:22.685Z,14.80
2019-03-19T02:25:57.972Z,18.47
2019-03-19T02:28:30.886Z,17.90
2019-03-19T02:30:59.572Z,17.97
2019-03-19T02:33:28.245Z,20.37
2019-03-19T02:36:00.477Z,15.87
2019-03-19T02:38:28.822Z,17.33
2019-03-19T02:40:57.543Z,13.17
2019-03-19T02:43:27.566Z,15.63
2019-03-19T02:46:01.912Z,19.03
2019-03-19T02:48:35.620Z,14.00
2019-03-19T02:51:09.814Z,24.50
2019-03-19T02:53:39.022Z,21.83
2019-03-19T02:56:34.951Z,21.50
2019-03-19T02:59:03.752Z,25.27
2019-03-19T03:01:32.362Z,17.53
2019-03-19T03:04:01.292Z,19.27
2019-03-19T03:06:29.999Z,17.77
2019-03-19T03:08:58.733Z,21.80
2019-03-19T03:11:27.876Z,14.57
2019-03-19T03:13:58.697Z,19.23
2019-03-19T03:16:27.773Z,22.53
2019-03-19T03:18:56.524Z,20.63
2019-03-19T03:21:25.616Z,24.63
2019-03-19T03:23:54.268Z,19.20
2019-03-19T03:26:23.049Z,17.73
2019-03-19T03:28:53.187Z,16.37
2019-03-19T03:31:23.017Z,19.93
2019-03-19T03:33:51.905Z,13.73
2019-03-19T03:36:20.462Z,23.17
2019-03-19T03:38:51.830Z,18.50
2019-03-19T03:41:20.708Z,24.07
2019-03-19T03:43:49.325Z,26.30
2019-03-19T03:46:18.553Z,15.87
2019-03-19T03:48:48.719Z,24.80
2019-03-19T03:51:17.413Z,27.47
2019-03-19T03:53:46.343Z,25.07
2019-03-19T03:56:16.430Z,16.27
2019-03-19T03:58:59.606Z,16.73
2019-03-19T04:01:17.445Z,22.67
2019-03-19T04:03:46.148Z,20.73
2019-03-19T04:06:16.387Z,18.73
2019-03-19T04:08:45.058Z,18.47
2019-03-19T04:11:13.759Z,24.10
2019-03-19T04:14:08.684Z,20.67
2019-03-19T04:16:37.595Z,23.67
2019-03-19T04:19:07.298Z,16.07
2019-03-19T04:21:37.547Z,28.17
2019-03-19T04:24:07.635Z,26.03
2019-03-19T04:26:36.276Z,20.27
2019-03-19T04:29:05.019Z,14.30
2019-03-19T04:31:33.792Z,15.00
2019-03-19T04:34:02.635Z,26.27
2019-03-19T04:36:31.305Z,26.80
2019-03-19T04:39:00.075Z,19.53
2019-03-19T04:41:29.017Z,19.47
2019-03-19T04:43:58.883Z,13.50
2019-03-19T04:46:27.583Z,18.57
2019-03-19T04:48:58.675Z,30.30
2019-03-19T04:51:29.043Z,15.97
2019-03-19T04:53:57.717Z,20.53
2019-03-19T04:56:26.597Z,21.83
2019-03-19T04:58:55.337Z,24.33
2019-03-19T05:01:24.268Z,17.40
2019-03-19T05:03:53.011Z,25.13
2019-03-19T05:06:21.754Z,14.40
2019-03-19T05:08:52.639Z,17.87
2019-03-19T05:11:27.493Z,25.60
2019-03-19T05:13:56.245Z,24.50
2019-03-19T05:16:26.511Z,24.43
2019-03-19T05:18:55.865Z,25.70
2019-03-19T05:21:26.205Z,18.87
2019-03-19T05:23:54.848Z,20.77
2019-03-19T05:26:23.691Z,19.63
2019-03-19T05:28:53.010Z,19.27
2019-03-19T05:31:21.645Z,23.77
2019-03-19T05:33:53.297Z,30.70
2019-03-19T05:36:22.043Z,24.97
2019-03-19T05:39:00.955Z,24.20
2019-03-19T05:41:29.917Z,24.13
2019-03-19T05:43:58.818Z,23.57
2019-03-19T05:46:28.067Z,27.77
2019-03-19T05:48:56.831Z,23.90
2019-03-19T05:51:27.223Z,30.63
2019-03-19T05:53:57.270Z,25.80
2019-03-19T05:56:26.278Z,16.47
2019-03-19T05:58:54.916Z,27.83
2019-03-19T06:01:24.196Z,34.63
2019-03-19T06:03:52.832Z,27.03
2019-03-19T06:06:21.550Z,22.30
2019-03-19T06:08:50.239Z,19.57
2019-03-19T06:11:18.909Z,17.33
2019-03-19T06:13:47.538Z,23.70
2019-03-19T06:16:16.520Z,20.73
2019-03-19T06:18:45.314Z,20.27
2019-03-19T06:21:14.382Z,20.03
2019-03-19T06:23:44.256Z,23.80
2019-03-19T06:26:12.999Z,16.40
2019-03-19T06:28:41.627Z,23.50
2019-03-19T06:31:10.201Z,19.07
2019-03-19T06:33:38.957Z,23.60
2019-03-19T06:36:07.582Z,20.57
2019-03-19T06:38:36.220Z,18.20
2019-03-19T06:41:04.974Z,20.80
2019-03-19T06:43:33.629Z,26.33
2019-03-19T06:46:02.387Z,16.00
2019-03-19T06:48:31.112Z,19.63
2019-03-19T06:51:00.857Z,23.40
2019-03-19T06:53:29.506Z,23.40
2019-03-19T06:55:58.112Z,19.00
2019-03-19T06:58:26.874Z,23.00
2019-03-19T07:01:18.930Z,14.23
2019-03-19T07:03:47.571Z,20.50
2019-03-19T07:06:16.229Z,20.80
2019-03-19T07:08:45.576Z,22.50
2019-03-19T07:11:17.137Z,16.17
2019-03-19T07:13:45.772Z,19.60
2019-03-19T07:16:14.520Z,28.33
2019-03-19T07:18:43.071Z,27.07
2019-03-19T07:21:12.942Z,18.23
2019-03-19T07:23:42.916Z,32.03
2019-03-19T07:26:34.136Z,25.57
2019-03-19T07:29:02.821Z,19.60
2019-03-19T07:31:31.431Z,19.97
2019-03-19T07:34:00.142Z,18.43
2019-03-19T07:36:28.981Z,22.03
2019-03-19T07:38:59.380Z,20.63
2019-03-19T07:41:28.232Z,17.60
2019-03-19T07:43:59.728Z,16.97
2019-03-19T07:46:28.448Z,18.53
2019-03-19T07:48:57.084Z,20.70
2019-03-19T07:51:25.754Z,21.33
2019-03-19T07:53:54.473Z,18.33
2019-03-19T07:56:23.234Z,15.50
2019-03-19T07:59:02.531Z,20.70
2019-03-19T08:01:35.194Z,16.13
2019-03-19T08:04:05.079Z,19.03
2019-03-19T08:06:34.134Z,20.77
2019-03-19T08:09:05.448Z,12.80
2019-03-19T08:11:34.192Z,14.87
2019-03-19T08:14:02.950Z,14.23
2019-03-19T08:16:34.814Z,18.00
2019-03-19T08:19:04.640Z,17.77
2019-03-19T08:21:33.377Z,22.07
2019-03-19T08:24:02.247Z,18.77
2019-03-19T08:26:31.094Z,12.80
2019-03-19T08:28:59.655Z,23.10
2019-03-19T08:31:30.438Z,15.70
2019-03-19T08:34:00.711Z,12.73
2019-03-19T08:36:29.575Z,16.20
2019-03-19T08:38:58.291Z,21.10
2019-03-19T08:41:28.486Z,19.27
2019-03-19T08:44:01.405Z,23.50
2019-03-19T08:46:30.231Z,14.43
2019-03-19T08:49:12.441Z,10.27
2019-03-19T08:51:42.815Z,18.87
2019-03-19T08:54:13.801Z,16.83
2019-03-19T08:56:45.277Z,11.77
2019-03-19T08:59:31.704Z,20.80
2019-03-19T09:02:03.484Z,17.13
2019-03-19T09:04:33.229Z,21.43
2019-03-19T09:07:01.919Z,14.33
2019-03-19T09:09:31.499Z,17.27
2019-03-19T09:12:02.718Z,15.40
2019-03-19T09:14:34.338Z,20.47
2019-03-19T09:17:06.309Z,11.20
2019-03-19T09:19:35.021Z,12.10
2019-03-19T09:22:05.120Z,14.73
2019-03-19T09:24:34.767Z,19.93
2019-03-19T09:27:06.554Z,12.93
2019-03-19T09:29:35.278Z,13.23
2019-03-19T09:32:03.969Z,13.43
2019-03-19T09:34:35.823Z,14.53
2019-03-19T09:37:12.933Z,20.43
2019-03-19T09:39:41.693Z,22.83
2019-03-19T09:42:10.420Z,15.00
2019-03-19T09:44:39.391Z,14.17
2019-03-19T09:47:09.891Z,22.60
2019-03-19T09:49:38.593Z,15.03
2019-03-19T09:52:07.441Z,13.47
2019-03-19T09:54:36.527Z,18.53
2019-03-19T09:57:06.721Z,15.13
2019-03-19T09:59:35.443Z,17.70
2019-03-19T10:02:04.269Z,20.77
2019-03-19T10:04:34.727Z,22.27
2019-03-19T10:07:06.228Z,15.50
2019-03-19T10:09:35.362Z,14.67
2019-03-19T10:14:27.094Z,17.40
2019-03-19T10:16:56.744Z,18.37
2019-03-19T10:19:26.990Z,12.17
2019-03-19T10:21:56.025Z,16.33
2019-03-19T10:24:25.345Z,14.97
2019-03-19T10:26:58.127Z,9.17
2019-03-19T10:29:37.808Z,13.00
2019-03-19T10:31:59.422Z,15.20
2019-03-19T10:34:31.247Z,15.03
2019-03-19T10:37:00.970Z,13.53
2019-03-19T10:39:29.766Z,13.80
2019-03-19T10:41:58.478Z,11.90
2019-03-19T10:44:30.624Z,17.30
2019-03-19T10:47:02.240Z,7.70
2019-03-19T10:49:38.279Z,12.13
2019-03-19T10:52:08.451Z,12.57
2019-03-19T10:54:41.998Z,8.80
2019-03-19T10:57:11.314Z,13.00
2019-03-19T10:59:49.166Z,9.67
2019-03-19T11:02:13.478Z,14.27
2019-03-19T11:04:42.121Z,8.77
2019-03-19T11:07:10.788Z,15.33
2019-03-19T11:09:42.260Z,12.17
2019-03-19T11:12:15.304Z,7.47
2019-03-19T11:14:44.174Z,6.97
2019-03-19T11:17:12.818Z,14.83
2019-03-19T11:20:00.822Z,8.07
2019-03-19T11:22:29.540Z,11.33
2019-03-19T11:24:58.175Z,9.07
2019-03-19T11:27:26.862Z,10.80
2019-03-19T11:29:59.826Z,11.07
2019-03-19T11:32:25.866Z,10.57
2019-03-19T11:34:55.250Z,5.23
2019-03-19T11:37:30.215Z,7.87
2019-03-19T11:40:02.143Z,8.63
2019-03-19T11:42:33.164Z,10.70
2019-03-19T11:45:02.220Z,6.80
2019-03-19T11:47:31.000Z,6.13
2019-03-19T11:50:01.590Z,7.40
2019-03-19T11:52:35.436Z,7.70
2019-03-19T11:55:10.165Z,14.37
2019-03-19T11:57:40.073Z,7.27
2019-03-19T12:00:36.947Z,5.43
2019-03-19T12:03:12.656Z,9.90
2019-03-19T12:05:36.612Z,5.63
2019-03-19T12:08:05.803Z,8.87
2019-03-19T12:10:34.521Z,10.63
2019-03-19T12:13:03.230Z,8.23
2019-03-19T12:15:32.167Z,9.67
2019-03-19T12:18:00.821Z,6.70
2019-03-19T12:20:29.599Z,9.13
2019-03-19T12:23:01.275Z,5.33
2019-03-19T12:25:31.252Z,7.27
2019-03-19T12:28:00.306Z,6.93
2019-03-19T12:30:29.043Z,5.97
2019-03-19T12:32:57.677Z,7.17
2019-03-19T12:35:26.387Z,7.77
2019-03-19T12:37:55.306Z,5.83
2019-03-19T12:40:36.877Z,13.03
2019-03-19T12:43:04.954Z,4.60
2019-03-19T12:45:33.673Z,8.70
2019-03-19T12:48:07.549Z,9.63
2019-03-19T12:50:36.307Z,6.53
2019-03-19T12:53:05.194Z,4.90
2019-03-19T12:55:33.904Z,7.17
2019-03-19T12:58:03.675Z,5.00
2019-03-19T13:00:34.689Z,10.97
2019-03-19T13:03:05.195Z,10.47
2019-03-19T13:05:37.966Z,5.23
2019-03-19T13:08:08.686Z,6.27
2019-03-19T13:10:34.722Z,9.07
2019-03-19T13:13:08.251Z,5.27
2019-03-19T13:15:36.907Z,6.30
2019-03-19T13:18:05.643Z,7.97
2019-03-19T13:20:36.743Z,11.17
2019-03-19T13:23:05.462Z,4.93
2019-03-19T13:25:34.264Z,8.87
2019-03-19T13:28:03.327Z,5.20
2019-03-19T13:30:44.416Z,10.53
2019-03-19T13:33:06.545Z,2.92
2019-03-19T13:35:35.369Z,13.40
2019-03-19T13:38:04.083Z,7.03
2019-03-19T13:40:33.212Z,9.23
2019-03-19T13:43:04.973Z,13.78
2019-03-19T13:45:43.966Z,5.47
2019-03-19T13:48:14.869Z,10.43
2019-03-19T13:50:46.559Z,7.12
2019-03-19T13:53:15.289Z,6.35
2019-03-19T13:55:44.253Z,4.97
2019-03-19T13:58:21.180Z,6.28
2019-03-19T14:00:56.071Z,7.90
2019-03-19T14:03:29.779Z,10.88
2019-03-19T14:05:58.509Z,22.73
2019-03-19T14:08:27.284Z,10.23
2019-03-19T14:10:57.821Z,16.93
2019-03-19T14:13:28.680Z,9.13
2019-03-19T14:15:57.538Z,16.43
2019-03-19T14:18:30.999Z,9.37
2019-03-19T14:21:00.188Z,15.40
2019-03-19T14:23:29.302Z,6.80
2019-03-19T14:25:59.744Z,11.97
2019-03-19T14:28:28.440Z,7.13
2019-03-19T14:31:07.881Z,6.07
2019-03-19T14:33:30.933Z,10.70
2019-03-19T14:36:03.025Z,10.07
2019-03-19T14:38:34.968Z,7.10
2019-03-19T14:41:05.048Z,4.93
2019-03-19T14:43:34.818Z,10.73
2019-03-19T14:46:07.125Z,7.83
2019-03-19T14:48:37.013Z,8.73
2019-03-19T14:51:05.796Z,11.43
2019-03-19T14:53:34.834Z,8.07
2019-03-19T14:56:03.538Z,13.37
2019-03-19T14:58:39.700Z,6.90
2019-03-19T15:01:18.748Z,10.47
2019-03-19T15:03:40.282Z,6.27
2019-03-19T15:06:09.349Z,10.73
2019-03-19T15:08:37.924Z,10.17
2019-03-19T15:11:06.634Z,6.33
2019-03-19T15:13:35.327Z,5.10
2019-03-19T15:16:12.629Z,10.50
2019-03-19T15:18:41.369Z,9.07
2019-03-19T15:21:14.481Z,8.27
2019-03-19T15:23:43.336Z,5.57
2019-03-19T15:26:12.934Z,12.40
2019-03-19T15:28:41.518Z,8.80
2019-03-19T15:31:10.352Z,8.60
2019-03-19T15:33:39.134Z,8.77
2019-03-19T15:36:07.878Z,10.90
2019-03-19T15:38:36.523Z,8.47
2019-03-19T15:41:08.264Z,6.27
2019-03-19T15:43:36.976Z,10.43
2019-03-19T15:46:05.717Z,4.60
2019-03-19T15:48:34.519Z,8.37
2019-03-19T15:51:03.184Z,7.53
2019-03-19T15:53:33.867Z,9.57
2019-03-19T15:56:02.332Z,7.43
2019-03-19T15:58:31.275Z,12.20
2019-03-19T16:01:03.396Z,7.30
2019-03-19T16:03:33.879Z,6.60
2019-03-19T16:06:02.985Z,8.23
2019-03-19T16:08:34.833Z,4.80
2019-03-19T16:11:03.457Z,10.53
2019-03-19T16:13:35.163Z,11.17
2019-03-19T16:16:04.058Z,11.80
2019-03-19T16:18:33.894Z,8.73
2019-03-19T16:21:02.397Z,10.07
2019-03-19T16:23:40.357Z,24.97
2019-03-19T16:26:09.074Z,6.43
2019-03-19T16:28:38.154Z,10.63
2019-03-19T16:31:07.619Z,8.37
2019-03-19T16:33:39.329Z,11.50
2019-03-19T16:36:08.050Z,7.13
2019-03-19T16:38:36.921Z,6.83
2019-03-19T16:41:08.811Z,6.80
2019-03-19T16:43:37.529Z,7.80
2019-03-19T16:46:06.341Z,8.73
2019-03-19T16:48:38.117Z,11.63
2019-03-19T16:51:06.746Z,5.83
2019-03-19T16:53:35.429Z,6.73
2019-03-19T16:56:07.694Z,6.67
2019-03-19T16:58:39.817Z,11.37
2019-03-19T17:01:08.458Z,14.60
2019-03-19T17:03:37.164Z,9.50
2019-03-19T17:06:07.461Z,8.57
2019-03-19T17:08:36.413Z,12.43
2019-03-19T17:11:10.136Z,6.47
2019-03-19T17:13:40.131Z,7.13
2019-03-19T17:16:08.702Z,13.87
2019-03-19T17:18:43.259Z,7.23
2019-03-19T17:21:15.264Z,4.73
2019-03-19T17:23:44.854Z,9.97
2019-03-19T17:26:15.671Z,8.50
2019-03-19T17:28:44.336Z,11.97
2019-03-19T17:31:14.503Z,8.77
2019-03-19T17:33:43.311Z,16.50
2019-03-19T17:36:14.563Z,10.33
2019-03-19T17:38:43.435Z,9.73
2019-03-19T17:41:13.921Z,15.07
2019-03-19T17:43:43.685Z,8.27
2019-03-19T17:46:12.405Z,10.17
2019-03-19T17:48:43.781Z,10.00
2019-03-19T17:51:16.289Z,5.63
2019-03-19T17:53:46.819Z,7.37
2019-03-19T17:56:18.252Z,7.87
2019-03-19T17:58:48.621Z,7.80
2019-03-19T18:01:18.202Z,8.67
2019-03-19T18:03:48.321Z,8.93
2019-03-19T18:06:19.805Z,6.33
2019-03-19T18:08:48.525Z,5.17
2019-03-19T18:11:18.659Z,5.63
2019-03-19T18:13:47.378Z,7.23
2019-03-19T18:16:20.685Z,10.27
2019-03-19T18:18:54.622Z,5.43
2019-03-19T18:21:23.359Z,12.77
2019-03-19T18:23:51.982Z,8.83
2019-03-19T18:26:21.871Z,4.93
2019-03-19T18:28:52.722Z,6.87
2019-03-19T18:31:28.465Z,8.03
2019-03-19T18:34:09.704Z,9.87
2019-03-19T18:36:29.173Z,6.77
2019-03-19T18:38:59.376Z,16.40
2019-03-19T18:41:28.138Z,7.43
2019-03-19T18:43:56.773Z,7.73
2019-03-19T18:46:25.633Z,9.50
2019-03-19T18:49:09.351Z,7.07
2019-03-19T18:51:42.142Z,5.50
2019-03-19T18:54:14.974Z,6.20
2019-03-19T18:56:46.276Z,12.23
2019-03-19T18:59:15.167Z,14.23
2019-03-19T19:01:46.327Z,7.10
2019-03-19T19:04:17.399Z,5.87
2019-03-19T19:06:47.652Z,7.30
2019-03-19T19:09:16.599Z,11.60
2019-03-19T19:11:45.199Z,5.23
2019-03-19T19:14:14.000Z,7.20
2019-03-19T19:16:44.416Z,8.43
2019-03-19T19:19:13.162Z,6.80
2019-03-19T19:21:46.871Z,7.00
2019-03-19T19:24:16.063Z,11.10
2019-03-19T19:26:44.981Z,7.23
2019-03-19T19:29:14.197Z,6.93
2019-03-19T19:31:45.945Z,7.43
2019-03-19T19:34:15.309Z,8.53
2019-03-19T19:36:48.548Z,6.03
2019-03-19T19:39:17.255Z,9.43
2019-03-19T19:41:47.434Z,9.07
2019-03-19T19:44:16.301Z,7.13
2019-03-19T19:46:46.238Z,10.70
2019-03-19T19:49:16.592Z,7.73
2019-03-19T19:51:45.415Z,8.30
2019-03-19T19:54:17.114Z,8.70
2019-03-19T19:56:45.764Z,8.33
2019-03-19T19:59:14.492Z,5.77
2019-03-19T20:01:43.234Z,9.00
2019-03-19T20:04:13.325Z,9.03
2019-03-19T20:06:43.308Z,3.90
2019-03-19T20:09:13.605Z,10.17
2019-03-19T20:11:42.360Z,8.70
2019-03-19T20:14:11.246Z,9.93
2019-03-19T20:16:41.711Z,3.30
2019-03-19T20:19:10.662Z,6.73
2019-03-19T20:21:41.893Z,4.87
2019-03-19T20:24:10.655Z,6.07
2019-03-19T20:26:56.773Z,5.93
2019-03-19T20:29:28.469Z,9.07
2019-03-19T20:31:57.443Z,5.47
2019-03-19T20:34:30.898Z,8.43
2019-03-19T20:37:02.813Z,7.77
2019-03-19T20:39:31.458Z,8.47
2019-03-19T20:42:00.288Z,10.33
2019-03-19T20:44:28.931Z,7.50
2019-03-19T20:46:57.643Z,11.67
2019-03-19T20:49:26.350Z,7.57
2019-03-19T20:51:59.195Z,11.83
2019-03-19T20:54:27.922Z,4.40
2019-03-19T20:56:57.707Z,7.20
2019-03-19T20:59:29.740Z,5.07
2019-03-19T21:02:00.718Z,10.23
2019-03-19T21:04:37.027Z,10.00
2019-03-19T21:07:08.908Z,5.40
2019-03-19T21:09:37.713Z,8.03
2019-03-19T21:12:06.770Z,11.70
2019-03-19T21:14:35.407Z,11.80
2019-03-19T21:17:11.546Z,10.60
2019-03-19T21:19:40.243Z,7.20
2019-03-19T21:22:10.631Z,8.93
2019-03-19T21:24:42.387Z,9.43
2019-03-19T21:27:11.654Z,10.03
2019-03-19T21:29:42.012Z,11.23
2019-03-19T21:32:12.860Z,10.93
2019-03-19T21:34:44.705Z,10.43
2019-03-19T21:37:16.399Z,12.23
2019-03-19T21:39:46.666Z,7.73
2019-03-19T21:42:21.587Z,13.10
2019-03-19T21:44:50.537Z,8.83
2019-03-19T21:47:21.914Z,7.73
2019-03-19T21:49:51.649Z,6.93
2019-03-19T21:52:21.931Z,9.53
2019-03-19T21:54:50.681Z,9.13
2019-03-19T21:57:22.289Z,10.83
2019-03-19T22:00:01.221Z,6.87
2019-03-19T22:02:29.950Z,8.63
2019-03-19T22:05:04.703Z,4.33
2019-03-19T22:07:33.862Z,3.97
2019-03-19T22:10:04.561Z,13.10
2019-03-19T22:12:33.212Z,6.23
2019-03-19T22:15:11.825Z,8.47
2019-03-19T22:17:40.461Z,7.50
2019-03-19T22:20:10.645Z,10.17
2019-03-19T22:22:39.402Z,9.27
2019-03-19T22:25:12.701Z,9.17
2019-03-19T22:27:44.308Z,8.13
2019-03-19T22:30:20.579Z,8.33
2019-03-19T22:32:55.893Z,12.77
2019-03-19T22:35:24.340Z,6.47
2019-03-19T22:37:53.069Z,9.80
2019-03-19T22:40:22.834Z,7.10
2019-03-19T22:42:53.789Z,8.63
2019-03-19T22:45:22.508Z,11.60
2019-03-19T22:47:51.254Z,7.90
2019-03-19T22:50:20.056Z,14.10
2019-03-19T22:52:48.861Z,7.77
2019-03-19T22:55:28.076Z,18.83
2019-03-19T22:57:47.956Z,4.57
2019-03-19T23:00:23.450Z,10.87
2019-03-19T23:02:53.660Z,7.17
2019-03-19T23:05:22.375Z,8.93
2019-03-19T23:07:51.476Z,10.27
2019-03-19T23:10:23.244Z,9.33
2019-03-19T23:12:51.882Z,11.37
2019-03-19T23:15:20.633Z,8.33
2019-03-19T23:17:49.271Z,8.23
2019-03-19T23:20:17.982Z,13.00
2019-03-19T23:22:46.941Z,9.03
2019-03-19T23:25:15.647Z,7.33
2019-03-19T23:27:44.360Z,11.27
2019-03-19T23:30:15.568Z,14.70
2019-03-19T23:32:45.914Z,6.50
2019-03-19T23:35:14.622Z,9.23
2019-03-19T23:37:46.218Z,6.37
2019-03-19T23:40:21.443Z,6.33
2019-03-19T23:42:52.377Z,9.90
2019-03-19T23:45:21.267Z,7.13
2019-03-19T23:47:49.822Z,6.83
2019-03-19T23:50:19.668Z,8.80
2019-03-19T23:52:52.391Z,11.53
2019-03-19T23:55:21.102Z,7.37
2019-03-19T23:57:49.780Z,9.10
